createdAt,value
2023-01-26T00:02:18.483Z,129.18
2023-01-26T00:04:45.797Z,134.23
2023-01-26T00:07:13.218Z,131.82
2023-01-26T00:09:40.676Z,124.75
2023-01-26T00:12:09.152Z,129.32
2023-01-26T00:14:50.173Z,132.77
2023-01-26T00:17:26.540Z,134.60
2023-01-26T00:19:56.862Z,134.43
2023-01-26T00:22:26.468Z,138.35
2023-01-26T00:24:56.527Z,139.68
2023-01-26T00:27:24.105Z,143.82
2023-01-26T00:29:51.560Z,148.25
2023-01-26T00:32:19.045Z,138.70
2023-01-26T00:34:46.472Z,141.80
2023-01-26T00:37:13.925Z,139.05
2023-01-26T00:39:42.779Z,131.77
2023-01-26T00:42:14.076Z,129.90
2023-01-26T00:44:43.519Z,128.20
2023-01-26T00:47:12.740Z,139.25
2023-01-26T00:49:40.991Z,124.47
2023-01-26T00:52:08.487Z,112.57
2023-01-26T00:54:35.991Z,110.32
2023-01-26T00:57:03.382Z,112.10
2023-01-26T00:59:32.598Z,92.32
2023-01-26T01:02:02.974Z,96.15
2023-01-26T01:04:30.982Z,87.15
2023-01-26T01:07:00.381Z,88.65
2023-01-26T01:09:29.069Z,88.82
2023-01-26T01:11:56.260Z,85.80
2023-01-26T01:14:23.919Z,79.63
2023-01-26T01:16:51.317Z,82.97
2023-01-26T01:19:19.325Z,85.05
2023-01-26T01:21:46.841Z,81.70
2023-01-26T01:24:15.192Z,79.72
2023-01-26T01:26:42.659Z,85.15
2023-01-26T01:29:13.934Z,75.38
2023-01-26T01:31:43.768Z,80.30
2023-01-26T01:34:11.432Z,74.75
2023-01-26T01:36:40.932Z,72.22
2023-01-26T01:39:08.311Z,72.97
2023-01-26T01:41:35.780Z,67.53
2023-01-26T01:44:24.451Z,63.15
2023-01-26T01:46:59.254Z,56.80
2023-01-26T01:49:43.103Z,55.53
2023-01-26T01:52:15.362Z,54.08
2023-01-26T01:54:52.764Z,52.53
2023-01-26T01:57:28.848Z,56.63
2023-01-26T02:00:07.437Z,51.88
2023-01-26T02:02:35.404Z,50.97
2023-01-26T02:05:14.240Z,45.38
2023-01-26T02:07:45.876Z,42.45
2023-01-26T02:10:19.453Z,44.63
2023-01-26T02:12:55.874Z,41.53
2023-01-26T02:15:24.061Z,40.50
2023-01-26T02:17:55.412Z,38.53
2023-01-26T02:20:47.225Z,41.30
2023-01-26T02:23:29.438Z,41.60
2023-01-26T02:25:57.585Z,40.50
2023-01-26T02:28:29.773Z,41.10
2023-01-26T02:30:57.797Z,42.92
2023-01-26T02:33:29.637Z,39.70
2023-01-26T02:35:59.860Z,35.65
2023-01-26T02:38:34.398Z,40.88
2023-01-26T02:41:08.286Z,35.45
2023-01-26T02:43:37.316Z,31.88
2023-01-26T02:46:05.513Z,32.30
2023-01-26T02:48:52.293Z,33.83
2023-01-26T02:51:19.497Z,31.77
2023-01-26T02:53:47.068Z,35.65
2023-01-26T02:56:15.509Z,34.40
2023-01-26T02:58:42.942Z,35.78
2023-01-26T03:01:10.469Z,37.85
2023-01-26T03:03:45.370Z,31.50
2023-01-26T03:06:15.647Z,33.45
2023-01-26T03:08:43.203Z,31.90
2023-01-26T03:11:10.738Z,36.08
2023-01-26T03:13:39.216Z,32.92
2023-01-26T03:16:10.609Z,35.65
2023-01-26T03:18:57.877Z,32.78
2023-01-26T03:21:43.514Z,33.80
2023-01-26T03:24:31.588Z,32.03
2023-01-26T03:27:19.255Z,38.92
2023-01-26T03:29:47.070Z,35.55
2023-01-26T03:32:14.544Z,34.25
2023-01-26T03:34:43.925Z,36.95
2023-01-26T03:37:13.292Z,41.90
2023-01-26T03:39:59.217Z,38.55
2023-01-26T03:42:50.547Z,40.45
2023-01-26T03:45:36.744Z,38.03
2023-01-26T03:48:33.815Z,39.67
2023-01-26T03:51:27.139Z,39.22
2023-01-26T03:54:12.799Z,38.85
2023-01-26T03:56:40.291Z,42.35
2023-01-26T03:59:08.724Z,38.92
2023-01-26T04:01:42.190Z,39.17
2023-01-26T04:04:30.122Z,39.60
2023-01-26T04:07:16.412Z,43.03
2023-01-26T04:09:44.229Z,41.30
2023-01-26T04:12:12.496Z,41.92
2023-01-26T04:14:58.775Z,44.28
2023-01-26T04:17:44.867Z,38.83
2023-01-26T04:20:33.083Z,43.72
2023-01-26T04:23:00.157Z,41.45
2023-01-26T04:25:27.693Z,42.80
2023-01-26T04:27:55.186Z,54.00
2023-01-26T04:30:22.604Z,49.20
2023-01-26T04:32:52.054Z,46.78
2023-01-26T04:35:19.615Z,43.70
2023-01-26T04:37:48.163Z,42.05
2023-01-26T04:40:16.646Z,44.38
2023-01-26T04:42:43.995Z,44.22
2023-01-26T04:45:12.198Z,47.33
2023-01-26T04:47:40.376Z,43.83
2023-01-26T04:50:08.599Z,46.35
2023-01-26T04:52:35.869Z,44.00
2023-01-26T04:55:03.467Z,45.15
2023-01-26T04:57:30.749Z,42.45
2023-01-26T04:59:58.314Z,46.75
2023-01-26T05:02:25.375Z,45.60
2023-01-26T05:04:52.659Z,44.58
2023-01-26T05:07:20.069Z,44.72
2023-01-26T05:09:47.592Z,47.95
2023-01-26T05:12:33.442Z,49.42
2023-01-26T05:15:01.086Z,52.47
2023-01-26T05:17:29.343Z,49.78
2023-01-26T05:19:56.916Z,52.33
2023-01-26T05:22:26.430Z,48.70
2023-01-26T05:24:54.079Z,47.90
2023-01-26T05:27:23.502Z,46.97
2023-01-26T05:29:51.866Z,47.45
2023-01-26T05:32:19.924Z,48.03
2023-01-26T05:34:47.415Z,49.00
2023-01-26T05:37:15.881Z,48.35
2023-01-26T05:39:43.199Z,49.70
2023-01-26T05:42:13.916Z,48.70
2023-01-26T05:44:41.241Z,50.47
2023-01-26T05:47:08.788Z,48.67
2023-01-26T05:49:43.135Z,49.10
2023-01-26T05:52:16.280Z,53.95
2023-01-26T05:54:44.053Z,51.47
2023-01-26T05:57:12.422Z,49.08
2023-01-26T05:59:40.204Z,41.65
2023-01-26T06:02:10.014Z,39.22
2023-01-26T06:04:37.459Z,53.08
2023-01-26T06:07:05.152Z,48.53
2023-01-26T06:09:33.350Z,46.75
2023-01-26T06:12:00.760Z,45.28
2023-01-26T06:14:28.159Z,48.72
2023-01-26T06:16:57.188Z,50.53
2023-01-26T06:19:26.663Z,44.45
2023-01-26T06:21:55.176Z,37.97
2023-01-26T06:24:24.142Z,38.10
2023-01-26T06:26:51.661Z,40.25
2023-01-26T06:29:19.123Z,41.58
2023-01-26T06:31:46.559Z,43.33
2023-01-26T06:34:17.086Z,43.05
2023-01-26T06:36:44.588Z,42.97
2023-01-26T06:39:13.029Z,41.72
2023-01-26T06:41:42.709Z,43.28
2023-01-26T06:44:11.579Z,42.05
2023-01-26T06:46:40.161Z,44.38
2023-01-26T06:49:07.479Z,45.53
2023-01-26T06:51:48.337Z,45.22
2023-01-26T06:54:21.930Z,37.47
2023-01-26T06:56:49.280Z,39.05
2023-01-26T06:59:16.846Z,46.63
2023-01-26T07:01:50.546Z,34.78
2023-01-26T07:04:18.815Z,33.45
2023-01-26T07:06:46.366Z,40.53
2023-01-26T07:09:14.750Z,40.92
2023-01-26T07:11:42.165Z,41.33
2023-01-26T07:14:09.676Z,38.75
2023-01-26T07:16:39.216Z,42.60
2023-01-26T07:19:08.257Z,37.35
2023-01-26T07:21:36.445Z,34.55
2023-01-26T07:24:04.749Z,32.70
2023-01-26T07:26:31.988Z,29.77
2023-01-26T07:29:01.749Z,27.85
2023-01-26T07:31:28.981Z,35.97
2023-01-26T07:33:56.468Z,30.42
2023-01-26T07:36:24.954Z,31.90
2023-01-26T07:38:54.412Z,29.80
2023-01-26T07:41:21.877Z,26.05
2023-01-26T07:43:51.288Z,28.20
2023-01-26T07:46:18.406Z,24.02
2023-01-26T07:48:45.808Z,27.13
2023-01-26T07:51:13.240Z,26.10
2023-01-26T07:53:42.562Z,25.38
2023-01-26T07:56:16.385Z,26.88
2023-01-26T07:58:43.971Z,30.23
2023-01-26T08:01:15.875Z,26.90
2023-01-26T08:03:45.829Z,29.08
2023-01-26T08:06:15.245Z,26.17
2023-01-26T08:08:43.680Z,25.42
2023-01-26T08:17:22.114Z,31.25
2023-01-26T08:19:49.134Z,25.00
2023-01-26T08:22:16.406Z,25.83
2023-01-26T08:24:43.458Z,28.90
2023-01-26T08:27:10.831Z,27.55
2023-01-26T08:29:39.004Z,25.17
2023-01-26T08:32:06.599Z,25.23
2023-01-26T08:34:36.693Z,29.48
2023-01-26T08:37:03.859Z,24.75
2023-01-26T08:39:31.131Z,28.73
2023-01-26T08:41:58.740Z,26.00
2023-01-26T08:44:26.028Z,25.10
2023-01-26T08:46:53.215Z,26.08
2023-01-26T08:49:20.456Z,25.00
2023-01-26T08:51:47.485Z,27.15
2023-01-26T08:54:14.905Z,22.80
2023-01-26T08:56:42.325Z,30.80
2023-01-26T08:59:09.490Z,24.38
2023-01-26T09:01:37.790Z,25.60
2023-01-26T09:04:05.296Z,24.60
2023-01-26T09:06:33.482Z,25.45
2023-01-26T09:09:00.668Z,27.23
2023-01-26T09:11:28.216Z,25.67
2023-01-26T09:13:58.032Z,23.88
2023-01-26T09:16:25.971Z,26.52
2023-01-26T09:18:54.012Z,25.73
2023-01-26T09:21:26.061Z,25.25
2023-01-26T09:23:53.429Z,25.08
2023-01-26T09:26:20.639Z,26.83
2023-01-26T09:28:57.859Z,26.58
2023-01-26T09:31:25.372Z,28.05
2023-01-26T09:33:52.887Z,26.83
2023-01-26T09:36:22.203Z,27.63
2023-01-26T09:38:50.479Z,27.30
2023-01-26T09:41:45.133Z,27.48
2023-01-26T09:44:24.537Z,25.23
2023-01-26T09:47:01.293Z,26.30
2023-01-26T09:50:26.129Z,22.70
2023-01-26T09:53:03.559Z,26.50
2023-01-26T09:55:31.991Z,27.10
2023-01-26T09:58:04.382Z,25.42
2023-01-26T10:00:46.529Z,28.20
2023-01-26T10:03:41.241Z,32.67
2023-01-26T10:06:31.623Z,30.92
2023-01-26T10:09:03.510Z,29.35
2023-01-26T10:11:45.218Z,28.50
2023-01-26T10:14:15.180Z,24.65
2023-01-26T10:16:47.309Z,29.17
2023-01-26T10:19:23.916Z,28.10
2023-01-26T10:21:54.205Z,27.27
2023-01-26T10:24:24.365Z,25.77
2023-01-26T10:26:57.449Z,26.45
2023-01-26T10:29:26.192Z,29.65
2023-01-26T10:31:53.381Z,27.88
2023-01-26T10:34:26.586Z,26.45
2023-01-26T10:37:23.114Z,27.00
2023-01-26T10:40:07.773Z,27.35
2023-01-26T10:42:36.866Z,22.88
2023-01-26T10:45:24.381Z,22.40
2023-01-26T10:48:20.466Z,22.73
2023-01-26T10:50:48.869Z,21.85
2023-01-26T10:53:30.445Z,24.58
2023-01-26T10:56:18.015Z,25.17
2023-01-26T10:58:57.474Z,20.85
2023-01-26T11:01:27.830Z,23.88
2023-01-26T11:04:15.487Z,21.08
2023-01-26T11:06:42.863Z,24.15
2023-01-26T11:09:21.503Z,22.63
2023-01-26T11:12:06.056Z,26.60
2023-01-26T11:14:33.778Z,24.67
2023-01-26T11:17:20.412Z,22.10
2023-01-26T11:20:24.579Z,24.02
2023-01-26T11:26:02.683Z,21.35
2023-01-26T11:28:51.777Z,20.30
2023-01-26T11:31:33.116Z,23.98
2023-01-26T11:34:13.213Z,25.40
2023-01-26T11:37:09.191Z,23.63
2023-01-26T11:39:51.909Z,23.25
2023-01-26T11:42:40.435Z,21.93
2023-01-26T11:45:36.969Z,21.83
2023-01-26T11:48:22.755Z,21.10
2023-01-26T11:50:52.877Z,19.52
2023-01-26T11:53:58.481Z,20.73
2023-01-26T11:56:39.821Z,20.63
2023-01-26T11:59:20.380Z,21.27
2023-01-26T12:02:27.465Z,23.27
2023-01-26T12:05:01.330Z,23.13
2023-01-26T12:07:34.084Z,21.00
2023-01-26T12:10:05.629Z,22.58
2023-01-26T12:12:43.759Z,22.98
2023-01-26T12:15:30.056Z,22.30
2023-01-26T12:18:06.394Z,21.40
2023-01-26T12:20:53.920Z,20.92
2023-01-26T12:23:39.464Z,23.60
2023-01-26T12:26:18.991Z,20.90
2023-01-26T12:29:28.364Z,21.52
2023-01-26T12:32:14.950Z,21.67
2023-01-26T12:34:42.135Z,24.40
2023-01-26T12:37:32.824Z,23.00
2023-01-26T12:40:09.520Z,24.08
2023-01-26T12:42:46.471Z,23.33
2023-01-26T12:45:20.978Z,26.08
2023-01-26T12:47:51.780Z,23.65
2023-01-26T12:50:39.041Z,21.80
2023-01-26T12:53:32.693Z,22.48
2023-01-26T12:56:17.755Z,26.58
2023-01-26T12:58:50.628Z,24.20
2023-01-26T13:01:22.431Z,26.75
2023-01-26T13:04:04.461Z,26.88
2023-01-26T13:06:33.946Z,24.63
2023-01-26T13:09:16.647Z,24.67
2023-01-26T13:11:47.175Z,24.97
2023-01-26T13:14:37.821Z,25.13
2023-01-26T13:17:16.952Z,25.83
2023-01-26T13:19:44.395Z,23.50
2023-01-26T13:22:25.690Z,27.30
2023-01-26T13:25:12.650Z,25.30
2023-01-26T13:27:40.016Z,27.40
2023-01-26T13:30:26.144Z,26.92
2023-01-26T13:33:02.406Z,24.40
2023-01-26T13:35:31.165Z,26.65
2023-01-26T13:38:10.241Z,27.17
2023-01-26T13:40:42.771Z,25.65
2023-01-26T13:43:40.616Z,25.27
2023-01-26T13:46:19.134Z,25.75
2023-01-26T13:48:48.734Z,27.17
2023-01-26T13:51:17.912Z,24.60
2023-01-26T13:53:50.380Z,24.55
2023-01-26T13:56:30.401Z,24.50
2023-01-26T13:59:17.722Z,25.17
2023-01-26T14:01:51.377Z,28.77
2023-01-26T14:04:32.604Z,27.10
2023-01-26T14:07:19.320Z,26.95
2023-01-26T14:09:55.206Z,26.63
2023-01-26T14:12:45.889Z,25.27
2023-01-26T14:15:33.066Z,26.35
2023-01-26T14:18:07.092Z,24.67
2023-01-26T14:20:38.275Z,25.83
2023-01-26T14:23:11.681Z,26.75
2023-01-26T14:28:13.475Z,27.60
2023-01-26T14:30:43.138Z,28.08
2023-01-26T14:33:15.818Z,28.52
2023-01-26T14:35:55.302Z,26.23
2023-01-26T14:38:22.563Z,28.17
2023-01-26T14:40:55.197Z,26.42
2023-01-26T14:43:22.688Z,27.55
2023-01-26T14:45:55.303Z,28.98
2023-01-26T14:48:37.836Z,31.15
2023-01-26T14:51:11.295Z,27.17
2023-01-26T14:53:38.559Z,27.25
2023-01-26T14:56:18.662Z,27.23
2023-01-26T14:58:53.320Z,28.05
2023-01-26T15:01:23.042Z,27.88
2023-01-26T15:03:57.640Z,30.67
2023-01-26T15:06:29.642Z,27.83
2023-01-26T15:09:21.605Z,30.63
2023-01-26T15:12:17.341Z,30.92
2023-01-26T15:14:46.190Z,30.38
2023-01-26T15:17:41.578Z,30.35
2023-01-26T15:20:24.100Z,30.48
2023-01-26T15:22:53.568Z,32.33
2023-01-26T15:25:29.185Z,32.95
2023-01-26T15:27:59.564Z,31.30
2023-01-26T15:30:34.271Z,32.45
2023-01-26T15:33:02.460Z,31.63
2023-01-26T15:35:32.736Z,29.17
2023-01-26T15:38:14.010Z,30.60
2023-01-26T15:40:41.223Z,30.45
2023-01-26T15:43:19.506Z,28.70
2023-01-26T15:45:57.519Z,28.80
2023-01-26T15:48:25.683Z,27.50
2023-01-26T15:50:53.718Z,29.95
2023-01-26T15:53:22.530Z,29.55
2023-01-26T15:55:56.408Z,29.75
2023-01-26T15:58:29.249Z,27.08
2023-01-26T16:00:59.192Z,31.08
2023-01-26T16:03:26.626Z,31.10
2023-01-26T16:05:54.415Z,30.27
2023-01-26T16:08:23.597Z,30.15
2023-01-26T16:10:51.608Z,31.48
2023-01-26T16:13:20.266Z,30.63
2023-01-26T16:15:53.297Z,32.72
2023-01-26T16:18:26.714Z,30.98
2023-01-26T16:23:24.754Z,31.20
2023-01-26T16:25:53.601Z,35.35
2023-01-26T16:28:21.189Z,35.70
2023-01-26T16:30:51.131Z,31.58
2023-01-26T16:33:24.986Z,35.75
2023-01-26T16:35:52.473Z,40.83
2023-01-26T16:38:20.921Z,44.05
2023-01-26T16:40:50.429Z,70.80
2023-01-26T16:43:24.106Z,51.63
2023-01-26T16:45:55.417Z,53.10
2023-01-26T16:48:23.904Z,50.13
2023-01-26T16:50:53.717Z,46.83
2023-01-26T16:53:27.835Z,44.97
2023-01-26T16:55:55.622Z,44.83
2023-01-26T16:58:26.803Z,48.90
2023-01-26T17:00:55.671Z,71.15
2023-01-26T17:03:23.699Z,60.35
2023-01-26T17:05:51.127Z,58.03
2023-01-26T17:08:18.481Z,70.20
2023-01-26T17:11:19.938Z,97.65
2023-01-26T17:13:48.735Z,90.32
2023-01-26T17:16:20.958Z,81.05
2023-01-26T17:18:49.509Z,74.60
2023-01-26T17:21:19.944Z,67.00
2023-01-26T17:23:54.103Z,65.13
2023-01-26T17:26:22.215Z,65.95
2023-01-26T17:28:52.992Z,65.22
2023-01-26T17:31:22.632Z,62.85
2023-01-26T17:33:52.542Z,65.22
2023-01-26T17:36:22.245Z,67.93
2023-01-26T17:38:55.391Z,72.40
2023-01-26T17:41:23.908Z,113.05
2023-01-26T17:43:51.645Z,76.70
2023-01-26T17:46:25.175Z,59.38
2023-01-26T17:48:55.158Z,58.88
2023-01-26T17:51:23.810Z,58.03
2023-01-26T17:53:51.816Z,51.90
2023-01-26T17:56:22.128Z,56.78
2023-01-26T17:58:52.868Z,64.53
2023-01-26T18:01:22.037Z,65.40
2023-01-26T18:03:54.291Z,73.53
2023-01-26T18:06:22.243Z,75.45
2023-01-26T18:08:56.461Z,79.95
2023-01-26T18:11:24.156Z,75.50
2023-01-26T18:13:53.627Z,119.25
2023-01-26T18:16:22.510Z,120.20
2023-01-26T18:18:57.963Z,110.35
2023-01-26T18:21:35.485Z,109.65
2023-01-26T18:24:05.447Z,110.45
2023-01-26T18:26:38.518Z,113.53
2023-01-26T18:29:07.339Z,106.20
2023-01-26T18:31:47.597Z,112.53
2023-01-26T18:34:15.674Z,103.30
2023-01-26T18:36:45.844Z,96.70
2023-01-26T18:39:14.990Z,94.88
2023-01-26T18:41:44.745Z,84.78
2023-01-26T18:44:12.590Z,102.72
2023-01-26T18:46:40.814Z,107.43
2023-01-26T18:49:11.165Z,106.70
2023-01-26T18:51:39.173Z,88.90
2023-01-26T18:54:20.503Z,116.53
2023-01-26T18:56:48.121Z,105.38
2023-01-26T18:59:15.883Z,131.40
2023-01-26T19:01:44.124Z,97.53
2023-01-26T19:04:13.452Z,109.13
2023-01-26T19:06:41.486Z,155.57
2023-01-26T19:09:09.446Z,217.40
2023-01-26T19:11:39.563Z,173.18
2023-01-26T19:14:09.090Z,123.50
2023-01-26T19:16:37.904Z,96.00
2023-01-26T19:19:06.281Z,102.05
2023-01-26T19:21:34.581Z,85.22
2023-01-26T19:24:08.754Z,81.53
2023-01-26T19:26:37.774Z,88.30
2023-01-26T19:29:06.391Z,90.10
2023-01-26T19:31:36.751Z,93.00
2023-01-26T19:34:10.933Z,93.32
2023-01-26T19:36:41.585Z,90.00
2023-01-26T19:39:11.601Z,90.00
2023-01-26T19:41:42.093Z,95.47
2023-01-26T19:44:16.393Z,93.00
2023-01-26T19:46:45.873Z,100.15
2023-01-26T19:49:22.460Z,106.68
2023-01-26T19:51:51.223Z,204.05
2023-01-26T19:54:19.648Z,206.40
2023-01-26T19:56:49.124Z,191.52
2023-01-26T19:59:17.495Z,144.80
2023-01-26T20:01:51.781Z,285.35
2023-01-26T20:04:20.100Z,238.25
2023-01-26T20:06:50.067Z,124.55
2023-01-26T20:09:18.201Z,119.63
2023-01-26T20:11:46.645Z,141.73
2023-01-26T20:14:15.155Z,167.07
2023-01-26T20:16:44.018Z,168.98
2023-01-26T20:19:14.445Z,131.88
2023-01-26T20:21:43.363Z,112.88
2023-01-26T20:24:16.209Z,114.10
2023-01-26T20:26:46.706Z,103.25
2023-01-26T20:29:17.365Z,111.57
2023-01-26T20:31:47.393Z,110.20
2023-01-26T20:34:17.000Z,107.63
2023-01-26T20:36:56.711Z,114.88
2023-01-26T20:39:25.868Z,108.53
2023-01-26T20:41:55.847Z,101.15
2023-01-26T20:44:30.175Z,119.78
2023-01-26T20:46:59.359Z,114.78
2023-01-26T20:49:26.851Z,113.97
2023-01-26T20:52:01.106Z,175.55
2023-01-26T20:54:28.917Z,155.75
2023-01-26T20:56:58.803Z,101.38
2023-01-26T20:59:27.040Z,102.70
2023-01-26T21:01:54.888Z,102.60
2023-01-26T21:04:22.753Z,105.38
2023-01-26T21:06:50.586Z,119.57
2023-01-26T21:09:19.030Z,111.63
2023-01-26T21:11:46.855Z,105.15
2023-01-26T21:14:14.164Z,121.65
2023-01-26T21:16:42.165Z,125.75
2023-01-26T21:19:09.718Z,278.55
2023-01-26T21:21:37.096Z,211.60
2023-01-26T21:24:06.144Z,137.02
2023-01-26T21:26:34.029Z,164.07
2023-01-26T21:29:01.659Z,122.05
2023-01-26T21:31:32.851Z,223.27
2023-01-26T21:34:01.645Z,170.25
2023-01-26T21:36:31.728Z,151.50
2023-01-26T21:39:00.756Z,128.32
2023-01-26T21:41:51.819Z,141.93
2023-01-26T21:44:53.608Z,111.82
2023-01-26T21:47:21.259Z,109.75
2023-01-26T21:49:54.953Z,109.28
2023-01-26T21:52:42.885Z,111.43
2023-01-26T21:55:10.290Z,112.25
2023-01-26T21:57:56.088Z,111.65
2023-01-26T22:00:23.458Z,116.90
2023-01-26T22:02:50.621Z,119.88
2023-01-26T22:05:17.839Z,146.82
2023-01-26T22:07:46.313Z,167.80
2023-01-26T22:10:14.001Z,283.42
2023-01-26T22:12:42.777Z,436.83
2023-01-26T22:15:10.658Z,222.02
2023-01-26T22:17:37.730Z,122.60
2023-01-26T22:20:06.463Z,111.20
2023-01-26T22:22:34.850Z,118.15
2023-01-26T22:25:02.151Z,108.85
2023-01-26T22:27:29.474Z,109.13
2023-01-26T22:29:56.991Z,101.55
2023-01-26T22:32:24.489Z,100.00
2023-01-26T22:34:51.985Z,96.22
2023-01-26T22:37:19.320Z,96.13
2023-01-26T22:39:49.245Z,101.10
2023-01-26T22:42:16.254Z,96.68
2023-01-26T22:44:43.820Z,103.95
2023-01-26T22:47:11.269Z,113.35
2023-01-26T22:49:38.778Z,110.72
2023-01-26T22:52:06.944Z,108.32
2023-01-26T22:54:34.166Z,114.10
2023-01-26T22:57:01.605Z,110.55
2023-01-26T22:59:30.129Z,111.10
2023-01-26T23:01:57.520Z,106.53
2023-01-26T23:04:25.114Z,104.40
2023-01-26T23:06:52.473Z,101.63
2023-01-26T23:09:20.998Z,107.95
2023-01-26T23:11:48.538Z,96.90
2023-01-26T23:14:17.047Z,99.55
2023-01-26T23:16:44.556Z,105.28
2023-01-26T23:19:11.946Z,136.50
2023-01-26T23:21:39.277Z,102.20
2023-01-26T23:24:08.318Z,98.30
2023-01-26T23:26:35.802Z,103.50
2023-01-26T23:29:03.718Z,104.50
2023-01-26T23:31:32.326Z,91.63
2023-01-26T23:34:01.771Z,90.45
2023-01-26T23:36:31.411Z,89.43
2023-01-26T23:38:58.744Z,90.05
2023-01-26T23:41:26.134Z,96.40
2023-01-26T23:43:53.594Z,91.50
2023-01-26T23:46:21.089Z,93.55
2023-01-26T23:48:48.496Z,92.60
2023-01-26T23:51:16.617Z,97.13
2023-01-26T23:53:43.949Z,94.75
2023-01-26T23:56:15.782Z,88.05
2023-01-26T23:58:43.235Z,84.38
